Arlington, Vermont
Current Conditions -  °F | °C
As of 12:54 AM on Friday 19 Dec 2014 (Local Time) from KDDH Reporting Station
Overcast Overcast  
Wind Chill: 21°   Ceiling: 4100
Heat Index: 30°   Visibility: 10mi
Dew Point: 23°   Wind: 10mph
Humidity: 75%   Direction: 270°W
Pressure: 29.89"   Gusts: NA
Location:  43.07°N, 73.15°W
Report Text: KDDH 190554Z AUTO 27009KT 10SM SCT025 OVC041 M01/M05 A2989 RMK AO2 SLP131 T10111050 10000 21011 50002
Loading
Personal Weather Stations






























Interactive Weather Map New forecast layout! Learn more

10-Day Weather Forecast

Advertisements
Track Severe Weather on mobile